createdAt,value
2023-12-17T00:01:50.785Z,9.70
2023-12-17T00:04:19.094Z,9.70
2023-12-17T00:06:48.621Z,9.60
2023-12-17T00:09:16.816Z,9.60
2023-12-17T00:11:45.080Z,9.60
2023-12-17T00:14:14.437Z,9.60
2023-12-17T00:16:43.997Z,9.60
2023-12-17T00:19:12.205Z,9.60
2023-12-17T00:21:40.382Z,9.60
2023-12-17T00:24:08.666Z,9.60
2023-12-17T00:26:36.811Z,9.60
2023-12-17T00:29:05.000Z,9.60
2023-12-17T00:31:33.193Z,9.60
2023-12-17T00:34:02.977Z,9.60
2023-12-17T00:36:31.123Z,9.60
2023-12-17T00:38:59.275Z,9.60
2023-12-17T00:41:27.433Z,9.60
2023-12-17T00:43:55.539Z,9.60
2023-12-17T00:46:23.673Z,9.50
2023-12-17T00:48:51.876Z,9.50
2023-12-17T00:51:21.885Z,9.50
2023-12-17T00:53:50.035Z,9.50
2023-12-17T00:56:18.711Z,9.50
2023-12-17T00:58:46.891Z,9.50
2023-12-17T01:01:15.052Z,9.50
2023-12-17T01:03:43.321Z,9.50
2023-12-17T01:06:11.672Z,9.50
2023-12-17T01:08:41.791Z,9.40
2023-12-17T01:11:10.008Z,9.40
2023-12-17T01:13:38.264Z,9.30
2023-12-17T01:16:07.402Z,9.30
2023-12-17T01:18:37.123Z,9.30
2023-12-17T01:21:07.661Z,9.30
2023-12-17T01:23:37.547Z,9.30
2023-12-17T01:26:07.376Z,9.30
2023-12-17T01:28:36.579Z,9.30
2023-12-17T01:31:04.916Z,9.30
2023-12-17T01:33:33.148Z,9.20
2023-12-17T01:36:01.484Z,9.20
2023-12-17T01:38:30.109Z,9.20
2023-12-17T01:40:58.227Z,9.20
2023-12-17T01:43:27.764Z,9.20
2023-12-17T01:45:56.704Z,9.10
2023-12-17T01:48:27.407Z,9.10
2023-12-17T01:50:56.901Z,9.10
2023-12-17T01:53:25.861Z,9.10
2023-12-17T01:55:57.141Z,9.10
2023-12-17T01:58:25.642Z,9.10
2023-12-17T02:00:56.373Z,9.00
2023-12-17T02:03:24.637Z,9.10
2023-12-17T02:05:53.012Z,9.10
2023-12-17T02:08:21.278Z,9.10
2023-12-17T02:10:49.484Z,9.00
2023-12-17T02:13:18.875Z,9.00
2023-12-17T02:15:49.489Z,9.00
2023-12-17T02:18:19.054Z,9.00
2023-12-17T02:20:51.264Z,9.00
2023-12-17T02:23:21.347Z,9.00
2023-12-17T02:25:49.640Z,9.00
2023-12-17T02:28:17.833Z,9.00
2023-12-17T02:30:46.091Z,9.00
2023-12-17T02:33:14.451Z,9.00
2023-12-17T02:35:42.979Z,9.00
2023-12-17T02:38:11.169Z,9.00
2023-12-17T02:40:40.698Z,9.00
2023-12-17T02:43:08.900Z,9.00
2023-12-17T02:45:36.988Z,9.00
2023-12-17T02:48:05.262Z,9.00
2023-12-17T02:50:33.483Z,9.00
2023-12-17T02:53:01.717Z,9.00
2023-12-17T02:55:29.877Z,9.00
2023-12-17T02:57:59.427Z,9.00
2023-12-17T03:00:27.569Z,8.90
2023-12-17T03:02:55.801Z,8.90
2023-12-17T03:05:24.053Z,8.90
2023-12-17T03:07:52.223Z,8.90
2023-12-17T03:10:20.381Z,8.90
2023-12-17T03:12:48.561Z,8.80
2023-12-17T03:15:18.284Z,8.80
2023-12-17T03:17:46.607Z,8.80
2023-12-17T03:20:14.986Z,8.80
2023-12-17T03:22:43.625Z,8.80
2023-12-17T03:25:11.757Z,8.80
2023-12-17T03:27:40.110Z,8.80
2023-12-17T03:30:09.857Z,8.70
2023-12-17T03:32:39.475Z,8.70
2023-12-17T03:35:08.654Z,8.70
2023-12-17T03:37:36.805Z,8.60
2023-12-17T03:40:05.550Z,8.60
2023-12-17T03:42:33.675Z,8.60
2023-12-17T03:45:02.592Z,8.50
2023-12-17T03:47:30.951Z,8.50
2023-12-17T03:50:00.600Z,8.50
2023-12-17T03:52:28.757Z,8.50
2023-12-17T03:54:56.848Z,8.40
2023-12-17T03:57:25.232Z,8.40
2023-12-17T03:59:53.508Z,8.40
2023-12-17T04:02:21.765Z,8.40
2023-12-17T04:04:49.950Z,8.40
2023-12-17T04:07:19.547Z,8.40
2023-12-17T04:09:49.105Z,8.40
2023-12-17T04:12:17.333Z,8.40
2023-12-17T04:14:45.545Z,8.40
2023-12-17T04:17:13.725Z,8.40
2023-12-17T04:19:42.198Z,8.40
2023-12-17T04:22:10.448Z,8.50
2023-12-17T04:24:40.518Z,8.50
2023-12-17T04:27:08.736Z,8.50
2023-12-17T04:29:36.865Z,8.50
2023-12-17T04:32:05.652Z,8.50
2023-12-17T04:34:33.933Z,8.50
2023-12-17T04:37:02.138Z,8.40
2023-12-17T04:39:30.295Z,8.40
2023-12-17T04:41:59.827Z,8.40
2023-12-17T04:44:27.958Z,8.30
2023-12-17T04:46:58.808Z,8.30
2023-12-17T04:49:27.141Z,8.30
2023-12-17T04:51:55.338Z,8.30
2023-12-17T04:54:23.687Z,8.30
2023-12-17T04:56:51.905Z,8.30
2023-12-17T04:59:21.571Z,8.30
2023-12-17T05:01:49.662Z,8.30
2023-12-17T05:04:18.677Z,8.30
2023-12-17T05:06:46.950Z,8.20
2023-12-17T05:09:15.409Z,8.20
2023-12-17T05:11:43.666Z,8.20
2023-12-17T05:14:11.769Z,8.20
2023-12-17T05:16:43.254Z,8.20
2023-12-17T05:19:11.898Z,8.10
2023-12-17T05:21:40.110Z,8.10
2023-12-17T05:24:08.422Z,8.10
2023-12-17T05:26:37.065Z,8.10
2023-12-17T05:29:05.217Z,8.10
2023-12-17T05:31:33.419Z,8.10
2023-12-17T05:34:03.064Z,8.10
2023-12-17T05:36:31.273Z,8.00
2023-12-17T05:38:59.494Z,8.10
2023-12-17T05:41:27.964Z,8.00
2023-12-17T05:43:58.069Z,8.00
2023-12-17T05:46:27.840Z,8.00
2023-12-17T05:48:56.585Z,8.00
2023-12-17T05:51:26.302Z,8.00
2023-12-17T05:53:54.709Z,8.00
2023-12-17T05:56:22.889Z,8.00
2023-12-17T05:58:51.027Z,8.00
2023-12-17T06:01:19.348Z,7.90
2023-12-17T06:03:48.025Z,7.90
2023-12-17T06:06:16.572Z,7.80
2023-12-17T06:08:46.342Z,7.80
2023-12-17T06:11:17.553Z,7.80
2023-12-17T06:13:49.324Z,7.80
2023-12-17T06:16:17.432Z,7.80
2023-12-17T06:18:45.845Z,7.80
2023-12-17T06:21:23.451Z,7.80
2023-12-17T06:23:53.429Z,7.80
2023-12-17T06:26:21.700Z,7.80
2023-12-17T06:28:49.946Z,7.80
2023-12-17T06:31:18.950Z,7.80
2023-12-17T06:33:47.969Z,7.80
2023-12-17T06:36:16.445Z,7.80
2023-12-17T06:38:44.717Z,7.80
2023-12-17T06:41:14.607Z,7.80
2023-12-17T06:43:43.153Z,7.80
2023-12-17T06:46:16.733Z,7.80
2023-12-17T06:48:45.102Z,7.70
2023-12-17T06:51:13.596Z,7.70
2023-12-17T06:53:41.740Z,7.70
2023-12-17T06:56:10.400Z,7.70
2023-12-17T06:58:39.992Z,7.70
2023-12-17T07:01:08.312Z,7.70
2023-12-17T07:03:36.465Z,7.70
2023-12-17T07:06:05.133Z,7.70
2023-12-17T07:08:33.276Z,7.60
2023-12-17T07:11:01.423Z,7.60
2023-12-17T07:13:29.737Z,7.50
2023-12-17T07:15:59.697Z,7.40
2023-12-17T07:18:28.011Z,7.40
2023-12-17T07:20:56.611Z,7.30
2023-12-17T07:23:26.786Z,7.20
2023-12-17T07:25:56.010Z,7.20
2023-12-17T07:28:24.375Z,7.20
2023-12-17T07:30:52.628Z,7.20
2023-12-17T07:33:22.239Z,7.20
2023-12-17T07:35:50.451Z,7.10
2023-12-17T07:38:19.309Z,7.10
2023-12-17T07:40:47.544Z,7.10
2023-12-17T07:43:15.653Z,7.10
2023-12-17T07:45:43.931Z,7.10
2023-12-17T07:48:12.301Z,7.10
2023-12-17T07:50:42.416Z,7.10
2023-12-17T07:53:10.675Z,7.10
2023-12-17T07:55:38.871Z,7.10
2023-12-17T07:58:07.064Z,7.10
2023-12-17T08:00:35.415Z,7.10
2023-12-17T08:03:04.324Z,7.00
2023-12-17T08:05:32.638Z,7.00
2023-12-17T08:08:03.237Z,7.00
2023-12-17T08:10:31.397Z,6.90
2023-12-17T08:12:59.891Z,6.90
2023-12-17T08:15:28.210Z,7.00
2023-12-17T08:17:59.231Z,7.00
2023-12-17T08:20:27.427Z,6.90
2023-12-17T08:22:55.701Z,6.90
2023-12-17T08:25:26.463Z,6.80
2023-12-17T08:27:54.700Z,6.70
2023-12-17T08:30:22.945Z,6.70
2023-12-17T08:32:51.178Z,6.70
2023-12-17T08:35:20.332Z,6.70
2023-12-17T08:37:49.130Z,6.70
2023-12-17T08:40:17.738Z,6.60
2023-12-17T08:42:47.853Z,6.50
2023-12-17T08:45:16.242Z,6.50
2023-12-17T08:47:44.869Z,6.40
2023-12-17T08:50:14.280Z,6.40
2023-12-17T08:52:42.508Z,6.40
2023-12-17T08:55:11.792Z,6.30
2023-12-17T08:57:40.275Z,6.30
2023-12-17T09:00:11.316Z,6.30
2023-12-17T09:02:39.621Z,6.30
2023-12-17T09:05:08.243Z,6.30
2023-12-17T09:07:37.753Z,6.30
2023-12-17T09:10:06.864Z,6.30
2023-12-17T09:12:35.218Z,6.40
2023-12-17T09:15:03.421Z,6.40
2023-12-17T09:17:33.089Z,6.50
2023-12-17T09:20:01.264Z,6.50
2023-12-17T09:22:29.481Z,6.60
2023-12-17T09:24:57.735Z,6.70
2023-12-17T09:27:26.167Z,6.70
2023-12-17T09:29:54.430Z,6.80
2023-12-17T09:32:22.665Z,6.90
2023-12-17T09:34:52.267Z,7.00
2023-12-17T09:37:21.802Z,7.10
2023-12-17T09:39:49.994Z,7.10
2023-12-17T09:42:21.842Z,7.20
2023-12-17T09:44:52.547Z,7.20
2023-12-17T09:47:20.785Z,7.30
2023-12-17T09:49:48.992Z,7.40
2023-12-17T09:52:21.044Z,7.50
2023-12-17T09:54:50.564Z,7.70
2023-12-17T09:57:19.175Z,7.80
2023-12-17T09:59:47.392Z,8.00
2023-12-17T10:02:17.186Z,8.10
2023-12-17T10:04:45.402Z,8.20
2023-12-17T10:07:14.614Z,8.30
2023-12-17T10:09:45.220Z,8.30
2023-12-17T10:12:13.459Z,8.30
2023-12-17T10:14:42.097Z,8.40
2023-12-17T10:17:10.396Z,8.40
2023-12-17T10:19:38.714Z,8.40
2023-12-17T10:22:08.633Z,8.40
2023-12-17T10:24:39.058Z,8.40
2023-12-17T10:27:17.985Z,8.50
2023-12-17T10:29:50.020Z,8.60
2023-12-17T10:32:23.569Z,8.70
2023-12-17T10:34:53.270Z,8.70
2023-12-17T10:37:23.971Z,8.70
2023-12-17T10:39:54.601Z,8.70
2023-12-17T10:42:26.736Z,8.70
2023-12-17T10:44:56.721Z,8.80
2023-12-17T10:47:27.754Z,8.90
2023-12-17T10:49:56.198Z,9.00
2023-12-17T10:52:25.329Z,9.10
2023-12-17T10:54:53.603Z,9.30
2023-12-17T10:57:26.714Z,9.40
2023-12-17T10:59:58.720Z,9.50
2023-12-17T11:02:28.618Z,9.60
2023-12-17T11:04:58.359Z,9.50
2023-12-17T11:07:35.617Z,9.30
2023-12-17T11:10:08.833Z,9.30
2023-12-17T11:12:40.711Z,9.30
2023-12-17T11:15:09.728Z,9.30
2023-12-17T11:17:42.189Z,9.30
2023-12-17T11:20:12.468Z,9.40
2023-12-17T11:23:01.679Z,9.50
2023-12-17T11:25:33.214Z,9.60
2023-12-17T11:28:03.036Z,9.70
2023-12-17T11:30:31.952Z,9.70
2023-12-17T11:33:01.113Z,9.70
2023-12-17T11:35:30.503Z,9.70
2023-12-17T11:37:59.347Z,9.70
2023-12-17T11:40:28.941Z,9.80
2023-12-17T11:42:59.030Z,9.80
2023-12-17T11:45:41.008Z,9.80
2023-12-17T11:48:12.058Z,9.80
2023-12-17T11:50:46.158Z,9.90
2023-12-17T11:53:15.609Z,9.90
2023-12-17T11:55:48.160Z,10.00
2023-12-17T11:58:18.750Z,10.00
2023-12-17T12:03:41.947Z,10.00
2023-12-17T12:06:13.288Z,9.90
2023-12-17T12:08:43.310Z,9.90
2023-12-17T12:11:15.375Z,9.90
2023-12-17T12:13:45.243Z,9.90
2023-12-17T12:16:14.431Z,9.90
2023-12-17T12:18:44.477Z,9.90
2023-12-17T12:21:20.119Z,10.10
2023-12-17T12:23:53.691Z,10.10
2023-12-17T12:26:22.107Z,10.10
2023-12-17T12:28:57.227Z,10.10
2023-12-17T12:31:26.040Z,10.10
2023-12-17T12:33:57.083Z,10.10
2023-12-17T12:36:25.485Z,9.90
2023-12-17T12:39:04.917Z,9.80
2023-12-17T12:41:33.916Z,9.80
2023-12-17T12:44:02.297Z,9.80
2023-12-17T12:46:31.086Z,9.80
2023-12-17T12:49:01.233Z,9.80
2023-12-17T12:51:31.304Z,9.80
2023-12-17T12:53:59.762Z,9.70
2023-12-17T12:56:27.925Z,9.80
2023-12-17T12:58:56.179Z,9.70
2023-12-17T13:01:24.356Z,9.70
2023-12-17T13:03:52.730Z,9.80
2023-12-17T13:06:22.397Z,9.80
2023-12-17T13:08:50.685Z,9.80
2023-12-17T13:11:19.681Z,9.80
2023-12-17T13:13:47.908Z,9.80
2023-12-17T13:16:16.344Z,9.70
2023-12-17T13:18:44.744Z,9.70
2023-12-17T13:21:13.479Z,9.70
2023-12-17T13:23:43.048Z,9.70
2023-12-17T13:26:17.382Z,9.60
2023-12-17T13:28:48.081Z,9.70
2023-12-17T13:31:16.442Z,9.70
2023-12-17T13:33:44.842Z,9.60
2023-12-17T13:36:13.319Z,9.50
2023-12-17T13:38:42.938Z,9.40
2023-12-17T13:41:11.179Z,9.50
2023-12-17T13:43:39.650Z,9.50
2023-12-17T13:46:08.277Z,9.60
2023-12-17T13:48:36.659Z,9.60
2023-12-17T13:51:05.385Z,9.60
2023-12-17T13:53:33.761Z,9.70
2023-12-17T13:56:03.398Z,9.70
2023-12-17T13:58:31.527Z,9.70
2023-12-17T14:00:59.849Z,9.60
2023-12-17T14:03:29.100Z,9.60
2023-12-17T14:05:57.522Z,9.60
2023-12-17T14:08:25.729Z,9.60
2023-12-17T14:10:54.034Z,9.50
2023-12-17T14:13:24.726Z,9.50
2023-12-17T14:15:54.054Z,9.50
2023-12-17T14:18:24.081Z,9.70
2023-12-17T14:20:52.446Z,9.70
2023-12-17T14:23:20.602Z,9.60
2023-12-17T14:25:51.516Z,9.60
2023-12-17T14:28:20.372Z,9.50
2023-12-17T14:30:50.061Z,9.40
2023-12-17T14:33:18.664Z,9.40
2023-12-17T14:35:47.077Z,9.40
2023-12-17T14:38:15.220Z,9.30
2023-12-17T14:40:43.533Z,9.30
2023-12-17T14:43:11.738Z,9.20
2023-12-17T14:45:41.196Z,9.20
2023-12-17T14:48:11.357Z,9.10
2023-12-17T14:50:40.333Z,9.00
2023-12-17T14:53:08.510Z,9.00
2023-12-17T14:55:36.754Z,8.90
2023-12-17T14:58:09.192Z,8.80
2023-12-17T15:00:37.770Z,8.80
2023-12-17T15:03:06.487Z,8.80
2023-12-17T15:05:36.345Z,8.70
2023-12-17T15:08:06.281Z,8.60
2023-12-17T15:10:36.459Z,8.60
2023-12-17T15:13:04.924Z,8.50
2023-12-17T15:15:34.341Z,8.40
2023-12-17T15:18:03.104Z,8.40
2023-12-17T15:20:31.338Z,8.30
2023-12-17T15:23:00.936Z,8.30
2023-12-17T15:25:29.105Z,8.20
2023-12-17T15:27:58.257Z,8.20
2023-12-17T15:30:26.664Z,8.10
2023-12-17T15:32:58.025Z,8.00
2023-12-17T15:35:26.474Z,7.90
2023-12-17T15:37:55.869Z,7.90
2023-12-17T15:40:25.413Z,7.80
2023-12-17T15:42:54.213Z,7.80
2023-12-17T15:45:24.198Z,7.70
2023-12-17T15:47:52.577Z,7.70
2023-12-17T15:50:21.225Z,7.60
2023-12-17T15:52:49.390Z,7.60
2023-12-17T15:55:18.866Z,7.60
2023-12-17T15:57:50.685Z,7.50
2023-12-17T16:00:20.796Z,7.50
2023-12-17T16:02:48.995Z,7.40
2023-12-17T16:05:17.287Z,7.40
2023-12-17T16:07:50.853Z,7.30
2023-12-17T16:10:19.421Z,7.30
2023-12-17T16:12:49.921Z,7.20
2023-12-17T16:15:18.153Z,7.20
2023-12-17T16:17:46.586Z,7.20
2023-12-17T16:20:14.840Z,7.10
2023-12-17T16:22:44.262Z,7.10
2023-12-17T16:25:12.934Z,7.00
2023-12-17T16:27:41.211Z,7.00
2023-12-17T16:30:11.884Z,7.00
2023-12-17T16:32:40.666Z,6.90
2023-12-17T16:35:10.900Z,7.00
2023-12-17T16:37:41.498Z,6.90
2023-12-17T16:40:10.776Z,6.90
2023-12-17T16:42:39.366Z,6.80
2023-12-17T16:45:08.728Z,6.80
2023-12-17T16:47:38.372Z,6.70
2023-12-17T16:50:07.372Z,6.70
2023-12-17T16:52:36.028Z,6.60
2023-12-17T16:55:04.607Z,6.60
2023-12-17T16:57:32.941Z,6.50
2023-12-17T17:00:01.559Z,6.50
2023-12-17T17:02:29.796Z,6.50
2023-12-17T17:04:59.474Z,6.40
2023-12-17T17:07:29.244Z,6.40
2023-12-17T17:09:57.529Z,6.40
2023-12-17T17:12:25.810Z,6.40
2023-12-17T17:14:55.291Z,6.30
2023-12-17T17:17:23.544Z,6.30
2023-12-17T17:19:51.827Z,6.30
2023-12-17T17:22:21.458Z,6.30
2023-12-17T17:24:49.679Z,6.30
2023-12-17T17:27:17.842Z,6.30
2023-12-17T17:29:47.177Z,6.30
2023-12-17T17:32:15.454Z,6.20
2023-12-17T17:34:44.687Z,6.20
2023-12-17T17:37:12.990Z,6.10
2023-12-17T17:39:42.721Z,6.10
2023-12-17T17:42:11.021Z,6.00
2023-12-17T17:44:39.437Z,6.00
2023-12-17T17:47:08.365Z,6.00
2023-12-17T17:49:36.584Z,6.00
2023-12-17T17:52:05.257Z,6.00
2023-12-17T17:54:33.544Z,6.00
2023-12-17T17:57:03.111Z,6.00
2023-12-17T17:59:31.326Z,6.00
2023-12-17T18:01:59.529Z,5.90
2023-12-17T18:04:27.774Z,5.90
2023-12-17T18:06:56.006Z,5.90
2023-12-17T18:09:24.218Z,5.90
2023-12-17T18:11:52.817Z,5.90
2023-12-17T18:14:22.405Z,5.90
2023-12-17T18:16:51.933Z,5.80
2023-12-17T18:19:20.242Z,5.70
2023-12-17T18:21:48.464Z,5.70
2023-12-17T18:24:16.686Z,5.70
2023-12-17T18:26:44.943Z,5.70
2023-12-17T18:29:13.210Z,5.70
2023-12-17T18:31:44.001Z,5.70
2023-12-17T18:34:12.587Z,5.70
2023-12-17T18:36:41.025Z,5.60
2023-12-17T18:39:09.311Z,5.60
2023-12-17T18:41:37.490Z,5.50
2023-12-17T18:44:07.598Z,5.50
2023-12-17T18:46:35.807Z,5.40
2023-12-17T18:49:05.409Z,5.40
2023-12-17T18:51:33.734Z,5.40
2023-12-17T18:54:02.183Z,5.40
2023-12-17T18:56:30.324Z,5.40
2023-12-17T18:58:58.490Z,5.40
2023-12-17T19:01:26.763Z,5.40
2023-12-17T19:03:55.182Z,5.40
2023-12-17T19:06:24.862Z,5.40
2023-12-17T19:08:52.947Z,5.40
2023-12-17T19:11:21.158Z,5.40
2023-12-17T19:13:49.350Z,5.30
2023-12-17T19:16:20.351Z,5.30
2023-12-17T19:18:49.626Z,5.20
2023-12-17T19:21:19.354Z,5.20
2023-12-17T19:23:55.584Z,5.20
2023-12-17T19:26:30.472Z,5.10
2023-12-17T19:29:00.097Z,5.10
2023-12-17T19:31:29.359Z,5.10
2023-12-17T19:34:06.953Z,5.00
2023-12-17T19:36:37.120Z,5.10
2023-12-17T19:39:13.182Z,5.00
2023-12-17T19:41:53.250Z,5.00
2023-12-17T19:44:22.517Z,5.00
2023-12-17T19:46:54.457Z,4.90
2023-12-17T19:49:28.595Z,4.90
2023-12-17T19:52:00.694Z,4.90
2023-12-17T19:54:35.579Z,4.90
2023-12-17T19:57:06.630Z,4.90
2023-12-17T19:59:38.902Z,4.80
2023-12-17T20:02:19.062Z,4.80
2023-12-17T20:04:50.833Z,4.80
2023-12-17T20:07:22.004Z,4.80
2023-12-17T20:10:11.091Z,4.90
2023-12-17T20:12:48.694Z,4.80
2023-12-17T20:15:17.169Z,4.80
2023-12-17T20:17:45.620Z,4.70
2023-12-17T20:20:14.506Z,4.70
2023-12-17T20:22:43.043Z,4.70
2023-12-17T20:25:13.066Z,4.70
2023-12-17T20:27:43.382Z,4.70
2023-12-17T20:30:12.350Z,4.60
2023-12-17T20:32:41.291Z,4.70
2023-12-17T20:35:10.327Z,4.70
2023-12-17T20:37:39.458Z,4.70
2023-12-17T20:40:08.079Z,4.60
2023-12-17T20:42:37.651Z,4.60
2023-12-17T20:45:06.319Z,4.50
2023-12-17T20:47:37.114Z,4.50
2023-12-17T20:50:05.824Z,4.50
2023-12-17T20:52:34.033Z,4.50
2023-12-17T20:55:07.112Z,4.50
2023-12-17T20:57:38.059Z,4.50
2023-12-17T21:00:08.229Z,4.50
2023-12-17T21:02:36.433Z,4.50
2023-12-17T21:05:04.865Z,4.50
2023-12-17T21:07:33.090Z,4.40
2023-12-17T21:10:01.289Z,4.40
2023-12-17T21:12:29.698Z,4.40
2023-12-17T21:14:59.585Z,4.40
2023-12-17T21:17:27.851Z,4.30
2023-12-17T21:19:56.038Z,4.30
2023-12-17T21:22:24.823Z,4.30
2023-12-17T21:24:53.080Z,4.30
2023-12-17T21:27:22.799Z,4.30
2023-12-17T21:29:51.219Z,4.30
2023-12-17T21:32:21.497Z,4.30
2023-12-17T21:34:50.180Z,4.30
2023-12-17T21:37:18.517Z,4.20
2023-12-17T21:39:46.733Z,4.10
2023-12-17T21:42:15.259Z,4.10
2023-12-17T21:45:03.204Z,4.10
2023-12-17T21:47:33.943Z,4.10
2023-12-17T21:50:02.274Z,4.10
2023-12-17T21:52:33.036Z,4.10
2023-12-17T21:55:02.069Z,4.10
2023-12-17T21:57:40.750Z,4.00
2023-12-17T22:00:15.561Z,4.10
2023-12-17T22:02:45.268Z,4.10
2023-12-17T22:05:13.793Z,4.00
2023-12-17T22:07:44.382Z,4.00
2023-12-17T22:10:15.564Z,4.00
2023-12-17T22:12:44.176Z,4.00
2023-12-17T22:15:12.713Z,3.90
2023-12-17T22:17:41.351Z,3.90
2023-12-17T22:20:12.071Z,3.80
2023-12-17T22:22:40.353Z,3.80
2023-12-17T22:25:09.759Z,3.90
2023-12-17T22:27:38.610Z,3.80
2023-12-17T22:30:08.163Z,3.90
2023-12-17T22:32:36.750Z,3.80
2023-12-17T22:35:05.623Z,3.80
2023-12-17T22:37:35.715Z,3.80
2023-12-17T22:40:04.080Z,3.80
2023-12-17T22:42:32.614Z,3.80
2023-12-17T22:45:00.887Z,3.80
2023-12-17T22:47:30.238Z,3.80
2023-12-17T22:49:58.594Z,3.80
2023-12-17T22:52:26.937Z,3.70
2023-12-17T22:54:56.552Z,3.70
2023-12-17T22:57:25.001Z,3.70
2023-12-17T22:59:53.271Z,3.70
2023-12-17T23:02:21.512Z,3.60
2023-12-17T23:04:49.715Z,3.60
2023-12-17T23:07:17.900Z,3.60
2023-12-17T23:09:46.142Z,3.50
2023-12-17T23:12:15.682Z,3.50
2023-12-17T23:14:43.978Z,3.50
2023-12-17T23:17:12.188Z,3.40
2023-12-17T23:19:40.460Z,3.40
2023-12-17T23:22:08.873Z,3.40
2023-12-17T23:24:38.944Z,3.30
2023-12-17T23:27:08.200Z,3.30
2023-12-17T23:29:37.854Z,3.20
2023-12-17T23:32:07.829Z,3.20
2023-12-17T23:34:38.369Z,3.10
2023-12-17T23:37:06.755Z,3.10
2023-12-17T23:39:35.018Z,3.10
2023-12-17T23:42:03.521Z,3.10
2023-12-17T23:44:32.346Z,3.10
2023-12-17T23:47:01.894Z,3.00
2023-12-17T23:49:31.202Z,3.00
2023-12-17T23:51:59.480Z,2.90
2023-12-17T23:54:27.883Z,2.90
2023-12-17T23:56:56.221Z,2.90
2023-12-17T23:59:25.660Z,2.80
